Time;durP1;ratioP1;P1;durP2;ratioP2;P2;SDS_P1;SDS_P2;PMS_P1;PMS_P2;Temp;Humidity;BMP_temperature;BMP_pressure;BME280_temperature;BME280_humidity;BME280_pressure;Samples;Min_cycle;Max_cycle;Signal;HPM_P1;HPM_P2
2021/05/30 00:01:27;;;;;;;1.93;1.33;;;;;;;9.22;56.86;96352.34;5048694;28;20182;-75
2021/05/30 00:03:52;;;;;;;1.37;1.27;;;;;;;9.21;56.79;96349.88;5052014;28;20205;-76
2021/05/30 00:06:18;;;;;;;3.90;1.70;;;;;;;9.23;56.66;96351.41;5052127;28;20684;-76
2021/05/30 00:08:43;;;;;;;1.60;1.30;;;;;;;9.30;55.61;96357.75;5034135;28;20181;-75
2021/05/30 00:11:09;;;;;;;1.67;1.50;;;;;;;9.22;56.51;96356.72;5049605;28;20174;-76
2021/05/30 00:13:34;;;;;;;2.10;1.50;;;;;;;9.17;56.53;96354.47;5051669;28;20210;-76
2021/05/30 00:15:59;;;;;;;3.83;1.33;;;;;;;9.20;56.30;96354.25;5049719;28;20566;-76
2021/05/30 00:18:25;;;;;;;1.83;1.43;;;;;;;9.20;56.20;96348.25;5050737;28;20242;-76
2021/05/30 00:20:50;;;;;;;1.60;1.40;;;;;;;9.21;56.14;96347.28;5033685;28;20178;-76
2021/05/30 00:23:16;;;;;;;1.87;1.47;;;;;;;9.26;55.77;96351.16;5049427;28;20296;-76
2021/05/30 00:25:41;;;;;;;3.23;1.33;;;;;;;9.26;55.65;96353.75;5050470;28;20181;-76
2021/05/30 00:28:06;;;;;;;1.40;1.30;;;;;;;9.22;55.86;96349.75;5050516;28;20174;-76
2021/05/30 00:30:33;;;;;;;1.70;1.60;;;;;;;9.22;56.14;96347.16;5051347;28;20182;-76
2021/05/30 00:32:58;;;;;;;3.30;1.60;;;;;;;9.24;55.84;96344.44;5049184;28;20194;-76
2021/05/30 00:35:23;;;;;;;2.40;1.40;;;;;;;9.28;55.94;96344.09;5050259;28;20276;-76
2021/05/30 00:37:48;;;;;;;1.40;1.30;;;;;;;9.21;56.32;96347.28;5050359;28;20717;-76
2021/05/30 00:40:14;;;;;;;1.83;1.60;;;;;;;9.19;56.46;96343.97;5049944;28;20639;-75
2021/05/30 00:42:39;;;;;;;2.37;2.10;;;;;;;9.14;57.01;96344.34;5050159;28;20227;-76
2021/05/30 00:45:05;;;;;;;2.20;1.97;;;;;;;9.15;56.69;96340.81;5049190;28;20174;-76
2021/05/30 00:47:31;;;;;;;2.77;1.70;;;;;;;9.10;57.15;96348.13;5051274;28;20664;-75
2021/05/30 00:49:56;;;;;;;1.80;1.70;;;;;;;9.07;57.43;96343.16;5033382;28;20232;-76
2021/05/30 00:52:21;;;;;;;2.37;2.17;;;;;;;9.03;57.67;96346.97;5049933;28;20260;-76
2021/05/30 00:54:47;;;;;;;2.57;2.03;;;;;;;9.08;57.57;96348.22;5048929;28;20213;-76
2021/05/30 00:57:12;;;;;;;2.47;2.00;;;;;;;9.05;57.75;96351.06;5033436;28;20173;-76
2021/05/30 00:59:38;;;;;;;3.20;2.37;;;;;;;9.02;58.23;96347.91;5050230;28;20858;-76
2021/05/30 01:02:03;;;;;;;2.97;2.40;;;;;;;9.04;58.39;96349.41;5051019;28;20597;-76
2021/05/30 01:04:29;;;;;;;3.37;2.27;;;;;;;8.93;59.00;96352.03;5032303;28;20247;-75
2021/05/30 01:06:57;;;;;;;3.47;2.40;;;;;;;8.95;58.63;96344.94;5049231;28;20208;-76
2021/05/30 01:09:24;;;;;;;3.07;2.50;;;;;;;8.87;59.00;96351.66;5041655;28;20185;-76
2021/05/30 01:11:50;;;;;;;2.23;2.03;;;;;;;8.78;59.16;96354.00;5049722;28;20499;-76
2021/05/30 01:14:16;;;;;;;2.17;1.97;;;;;;;8.77;59.59;96349.78;5051071;28;20205;-75
2021/05/30 01:16:41;;;;;;;3.80;2.17;;;;;;;8.73;59.74;96348.34;5048744;28;20272;-74
2021/05/30 01:19:10;;;;;;;4.77;2.17;;;;;;;8.67;59.77;96343.66;5049897;28;20182;-75
2021/05/30 01:21:35;;;;;;;4.30;2.30;;;;;;;8.66;59.83;96343.78;5033064;28;20170;-75
2021/05/30 01:24:01;;;;;;;2.63;2.40;;;;;;;8.73;59.60;96345.75;5049783;28;20284;-76
2021/05/30 01:26:26;;;;;;;2.47;2.00;;;;;;;8.73;59.83;96350.09;5031424;28;20186;-75
2021/05/30 01:28:52;;;;;;;3.33;2.60;;;;;;;8.73;59.50;96350.94;5054778;28;20576;-76
2021/05/30 01:31:18;;;;;;;3.13;2.53;;;;;;;8.77;59.67;96347.19;5053604;28;20178;-76
2021/05/30 01:33:43;;;;;;;3.47;2.30;;;;;;;8.76;59.85;96350.72;5053716;28;20194;-76
2021/05/30 01:36:09;;;;;;;2.80;2.60;;;;;;;8.60;60.29;96347.63;5055011;28;20182;-75
2021/05/30 01:38:34;;;;;;;4.80;2.80;;;;;;;8.56;61.19;96353.97;5051963;28;20572;-76
2021/05/30 01:41:00;;;;;;;2.77;2.53;;;;;;;8.58;61.11;96354.69;5053444;28;20280;-76
2021/05/30 01:43:26;;;;;;;3.47;2.87;;;;;;;8.51;61.31;96346.56;5053664;28;20194;-75
2021/05/30 01:45:51;;;;;;;3.43;2.53;;;;;;;8.54;61.42;96349.84;5053563;28;20206;-75
2021/05/30 01:48:16;;;;;;;2.97;2.67;;;;;;;8.40;61.81;96348.31;5052478;28;20205;-75
2021/05/30 01:50:47;;;;;;;4.20;2.90;;;;;;;8.31;61.85;96354.16;5053086;28;20185;-75
2021/05/30 01:53:13;;;;;;;3.47;2.73;;;;;;;8.20;62.43;96355.75;5053133;28;20725;-76
2021/05/30 01:55:48;;;;;;;4.93;2.90;;;;;;;8.10;62.28;96352.19;5053313;28;20277;-75
2021/05/30 01:58:15;;;;;;;3.07;2.77;;;;;;;8.06;62.63;96361.13;5035904;28;20192;-76
2021/05/30 02:00:40;;;;;;;5.20;2.70;;;;;;;8.02;62.79;96359.69;5052881;28;20239;-76
2021/05/30 02:03:06;;;;;;;3.27;2.57;;;;;;;8.01;63.23;96362.38;5053174;28;20198;-76
2021/05/30 02:05:32;;;;;;;3.17;2.70;;;;;;;8.16;63.04;96361.28;5053210;28;20166;-76
2021/05/30 02:07:59;;;;;;;3.33;2.90;;;;;;;8.19;62.70;96369.63;5053117;28;20651;-75
2021/05/30 02:10:24;;;;;;;3.53;3.23;;;;;;;8.21;62.56;96359.16;5035217;28;20224;-75
2021/05/30 02:12:52;;;;;;;3.47;3.13;;;;;;;8.11;63.01;96356.41;5054211;28;20221;-75
2021/05/30 02:15:19;;;;;;;4.50;2.73;;;;;;;8.13;63.11;96359.75;5052948;28;20201;-76
2021/05/30 02:17:44;;;;;;;3.20;2.83;;;;;;;8.13;63.17;96351.97;5054200;28;20204;-75
2021/05/30 02:20:11;;;;;;;4.27;3.27;;;;;;;8.08;63.51;96355.84;5051855;28;20209;-76
2021/05/30 02:22:37;;;;;;;3.47;3.17;;;;;;;8.10;63.20;96344.44;5052374;28;20657;-75
2021/05/30 02:25:04;;;;;;;6.07;2.93;;;;;;;8.08;63.49;96354.06;5052934;28;20260;-75
2021/05/30 02:27:29;;;;;;;5.90;2.87;;;;;;;8.13;63.26;96361.50;5052739;28;20184;-76
2021/05/30 02:29:54;;;;;;;4.63;3.03;;;;;;;8.15;63.37;96355.28;5050731;28;20189;-76
2021/05/30 02:32:20;;;;;;;3.60;3.10;;;;;;;8.16;63.40;96362.09;5052264;28;20209;-76
2021/05/30 02:34:45;;;;;;;6.23;3.40;;;;;;;8.19;62.91;96351.50;5053719;28;20202;-76
2021/05/30 02:37:12;;;;;;;3.87;3.07;;;;;;;8.16;62.96;96356.09;5052553;28;20182;-76
2021/05/30 02:39:38;;;;;;;3.27;2.80;;;;;;;8.36;62.87;96359.81;5051350;28;20174;-75
2021/05/30 02:42:04;;;;;;;5.37;3.10;;;;;;;8.26;62.97;96353.66;5051337;28;20316;-76
2021/05/30 02:44:30;;;;;;;3.27;2.90;;;;;;;8.14;63.24;96361.38;5051487;28;20204;-76
2021/05/30 02:46:55;;;;;;;4.43;2.83;;;;;;;8.08;63.39;96364.41;5053591;28;20185;-76
2021/05/30 02:49:21;;;;;;;3.40;3.10;;;;;;;8.05;63.62;96369.00;5052296;28;20653;-75
2021/05/30 02:51:46;;;;;;;5.90;3.77;;;;;;;7.89;64.32;96367.53;5052377;28;20215;-75
2021/05/30 02:54:12;;;;;;;3.57;3.00;;;;;;;7.79;64.65;96369.13;5084766;28;20217;-75
2021/05/30 02:56:37;;;;;;;3.77;3.30;;;;;;;7.72;64.56;96359.34;5052170;28;20525;-76
2021/05/30 02:59:02;;;;;;;6.20;3.13;;;;;;;7.65;64.76;96361.53;5053397;28;20181;-75
2021/05/30 03:01:28;;;;;;;4.93;3.40;;;;;;;7.38;67.31;96362.53;5051967;28;20178;-76
2021/05/30 03:03:53;;;;;;;3.40;3.10;;;;;;;7.43;66.47;96362.25;5050919;28;20205;-76
2021/05/30 03:06:23;;;;;;;3.40;3.10;;;;;;;7.36;66.51;96361.84;5053155;28;20178;-75
2021/05/30 03:08:48;;;;;;;3.40;3.10;;;;;;;7.30;66.79;96364.03;5052065;28;20265;-75
2021/05/30 03:11:14;;;;;;;5.20;3.10;;;;;;;7.23;66.90;96367.97;5052948;28;20273;-76
2021/05/30 03:13:39;;;;;;;5.10;2.80;;;;;;;7.20;66.94;96365.59;5049116;28;20213;-75
2021/05/30 03:16:04;;;;;;;3.00;2.70;;;;;;;7.14;67.32;96371.19;5053042;28;20182;-76
2021/05/30 03:18:30;;;;;;;3.33;3.03;;;;;;;7.14;67.07;96366.00;5052894;28;20665;-76
2021/05/30 03:20:55;;;;;;;4.23;2.87;;;;;;;7.15;66.87;96368.47;5052728;28;20173;-75
2021/05/30 03:23:20;;;;;;;3.60;3.20;;;;;;;7.10;67.07;96368.00;5049648;28;20230;-76
2021/05/30 03:25:46;;;;;;;4.93;3.53;;;;;;;7.10;66.75;96374.00;5085134;28;20641;-75
2021/05/30 03:28:11;;;;;;;6.00;3.13;;;;;;;7.14;66.29;96366.00;5052820;28;20641;-75
2021/05/30 03:30:37;;;;;;;3.93;3.13;;;;;;;7.13;66.51;96379.88;5051434;28;20684;-76
2021/05/30 03:33:03;;;;;;;3.60;3.30;;;;;;;7.13;66.44;96372.13;5051400;28;20185;-75
2021/05/30 03:35:28;;;;;;;3.20;2.90;;;;;;;7.13;66.61;96369.53;5050327;28;20201;-75
2021/05/30 03:37:55;;;;;;;4.57;3.03;;;;;;;7.19;66.61;96375.09;5052617;28;20192;-75
2021/05/30 03:40:30;;;;;;;3.50;3.20;;;;;;;7.19;66.75;96375.09;5051312;28;20517;-76
2021/05/30 03:42:57;;;;;;;3.47;3.00;;;;;;;7.19;66.32;96372.53;5051455;28;20185;-75
2021/05/30 03:45:23;;;;;;;3.97;3.53;;;;;;;7.23;66.35;96370.53;5050360;28;20185;-76
2021/05/30 03:47:49;;;;;;;4.40;3.17;;;;;;;7.36;66.00;96371.34;5050959;28;20188;-75
2021/05/30 03:50:15;;;;;;;3.87;3.33;;;;;;;7.32;66.55;96369.91;5052179;28;20641;-76
2021/05/30 03:52:40;;;;;;;3.30;3.00;;;;;;;7.43;65.74;96362.25;5052079;28;20186;-75
2021/05/30 03:55:07;;;;;;;3.57;3.27;;;;;;;8.23;64.06;96368.47;5050200;28;20608;-76
2021/05/30 03:57:34;;;;;;;3.90;3.07;;;;;;;9.51;60.18;96363.03;5050804;28;20618;-76
2021/05/30 04:00:00;;;;;;;3.73;3.20;;;;;;;10.54;57.11;96372.91;5050968;28;20170;-76
2021/05/30 04:02:26;;;;;;;3.27;2.80;;;;;;;11.53;53.02;96367.06;5051881;28;20730;-76
2021/05/30 04:04:51;;;;;;;4.13;2.80;;;;;;;12.33;51.08;96379.06;5052051;28;20265;-76
2021/05/30 04:07:16;;;;;;;4.23;2.90;;;;;;;12.79;48.53;96370.50;5049632;28;20182;-76
2021/05/30 04:09:41;;;;;;;3.30;3.00;;;;;;;14.01;45.76;96382.44;5051281;28;20193;-76
2021/05/30 04:12:07;;;;;;;4.07;2.80;;;;;;;14.19;45.64;96379.84;5050504;28;20549;-76
2021/05/30 04:14:32;;;;;;;3.67;2.80;;;;;;;15.21;43.94;96374.88;5050527;28;20248;-76
2021/05/30 04:16:58;;;;;;;3.67;2.73;;;;;;;15.32;41.82;96379.03;5049644;28;20277;-76
2021/05/30 04:19:23;;;;;;;3.03;2.75;;;;;;;15.29;41.83;96368.88;5051807;28;20177;-76
2021/05/30 04:21:48;;;;;;;2.88;2.58;;;;;;;13.69;45.33;96371.66;5051643;28;20596;-76
2021/05/30 04:24:14;;;;;;;4.53;2.78;;;;;;;13.45;45.84;96374.84;5050623;28;20615;-74
2021/05/30 04:26:39;;;;;;;3.38;3.03;;;;;;;13.99;45.14;96376.56;5034205;28;20256;-75
2021/05/30 04:29:04;;;;;;;4.28;3.22;;;;;;;15.57;41.19;96378.16;5032766;28;20804;-75
2021/05/30 04:31:30;;;;;;;3.85;2.90;;;;;;;16.77;39.06;96386.53;5050073;28;20193;-75
2021/05/30 04:33:55;;;;;;;3.08;2.88;;;;;;;16.90;38.93;96384.25;5033747;28;20770;-75
2021/05/30 04:36:20;;;;;;;2.75;2.40;;;;;;;18.53;34.03;96383.50;5050490;28;20633;-75
2021/05/30 04:38:46;;;;;;;3.38;2.50;;;;;;;19.42;32.18;96384.47;5048767;28;20592;-74
2021/05/30 04:41:11;;;;;;;2.88;2.67;;;;;;;18.23;35.31;96386.03;5049946;28;20190;-75
2021/05/30 04:43:37;;;;;;;3.13;2.83;;;;;;;20.49;31.70;96385.56;5050290;28;20202;-77
2021/05/30 04:46:02;;;;;;;2.80;2.47;;;;;;;20.57;31.00;96384.63;5051595;28;20170;-76
2021/05/30 04:48:27;;;;;;;3.22;2.47;;;;;;;21.07;29.83;96388.88;5049582;28;20557;-74
2021/05/30 04:53:38;;;;;;;2.95;2.75;;;;;;;21.15;30.26;96391.38;5031508;28;20210;-75
2021/05/30 04:56:04;;;;;;;4.22;2.75;;;;;;;21.87;28.15;96382.22;5013830;28;20178;-74
2021/05/30 04:58:29;;;;;;;3.17;2.85;;;;;;;21.57;28.50;96384.34;5030232;28;20265;-74
2021/05/30 05:00:55;;;;;;;3.20;2.42;;;;;;;21.85;28.14;96386.09;5045569;28;20600;-75
2021/05/30 05:03:20;;;;;;;3.42;2.55;;;;;;;23.08;25.91;96396.31;5039577;28;20212;-75
2021/05/30 05:05:46;;;;;;;3.35;2.47;;;;;;;22.67;26.40;96388.53;5056646;28;20173;-75
2021/05/30 05:08:11;;;;;;;5.63;2.50;;;;;;;22.89;25.91;96394.50;5056563;28;20265;-75
2021/05/30 05:10:36;;;;;;;3.25;2.42;;;;;;;22.00;28.56;96379.66;5055524;28;20231;-74
2021/05/30 05:13:02;;;;;;;2.20;2.10;;;;;;;22.58;27.18;96382.63;5056553;28;20251;-75
2021/05/30 05:15:27;;;;;;;2.70;2.50;;;;;;;24.42;24.72;96379.78;5056686;28;20382;-74
2021/05/30 05:17:52;;;;;;;2.97;2.35;;;;;;;23.94;24.34;96382.03;5039969;28;20269;-74
2021/05/30 05:20:17;;;;;;;3.25;2.70;;;;;;;22.21;27.10;96388.47;5039393;28;20563;-73
2021/05/30 05:22:43;;;;;;;3.45;2.85;;;;;;;23.51;24.87;96387.09;5039290;28;20213;-75
2021/05/30 05:25:09;;;;;;;3.97;2.60;;;;;;;23.38;25.51;96394.03;5057758;28;20648;-74
2021/05/30 05:27:34;;;;;;;2.75;2.50;;;;;;;23.63;25.14;96390.75;5057776;28;20178;-74
2021/05/30 05:29:59;;;;;;;2.75;2.55;;;;;;;22.20;28.13;96395.59;5056566;28;20169;-74
2021/05/30 05:32:25;;;;;;;3.25;2.80;;;;;;;22.49;27.59;96397.09;5055425;28;20186;-74
2021/05/30 05:34:50;;;;;;;3.15;2.83;;;;;;;23.50;25.25;96391.56;5057409;28;20268;-75
2021/05/30 05:37:15;;;;;;;4.40;2.83;;;;;;;24.47;24.18;96387.94;5057759;28;20169;-75
2021/05/30 05:39:41;;;;;;;2.95;2.47;;;;;;;22.61;26.48;96387.50;5056597;28;20178;-76
2021/05/30 05:42:06;;;;;;;4.10;2.67;;;;;;;22.33;27.18;96398.25;5055635;28;20208;-75
2021/05/30 05:44:32;;;;;;;2.88;2.38;;;;;;;22.15;28.38;96392.72;5057545;28;20197;-76
2021/05/30 05:46:57;;;;;;;3.13;2.83;;;;;;;24.24;24.77;96384.97;5057378;28;20296;-76
2021/05/30 05:49:22;;;;;;;3.88;2.60;;;;;;;23.34;26.11;96399.97;5056237;28;20229;-74
2021/05/30 05:51:48;;;;;;;2.75;2.55;;;;;;;23.32;26.10;96397.53;5056035;28;20205;-74
2021/05/30 05:54:13;;;;;;;3.28;2.97;;;;;;;21.97;28.01;96395.09;5056370;28;20245;-74
2021/05/30 05:56:38;;;;;;;3.25;2.95;;;;;;;22.48;27.25;96399.94;5056275;28;20566;-75
2021/05/30 05:59:03;;;;;;;3.03;2.72;;;;;;;22.57;27.11;96396.88;5057505;28;20641;-73
2021/05/30 06:01:29;;;;;;;2.88;2.67;;;;;;;22.72;27.03;96404.66;5039303;28;20181;-73
2021/05/30 06:03:54;;;;;;;2.83;2.50;;;;;;;22.10;28.21;96399.66;5053518;28;20220;-73
2021/05/30 06:06:20;;;;;;;2.95;2.65;;;;;;;24.22;25.64;96402.97;5057472;28;20178;-75
2021/05/30 06:08:45;;;;;;;2.90;2.63;;;;;;;24.77;24.08;96395.28;5057531;28;20587;-75
2021/05/30 06:11:11;;;;;;;2.90;2.47;;;;;;;23.30;26.19;96406.69;5055821;28;20196;-73
2021/05/30 06:13:36;;;;;;;3.60;3.00;;;;;;;22.54;27.58;96401.78;5055155;28;20415;-72
2021/05/30 06:16:05;;;;;;;3.20;2.90;;;;;;;23.48;25.73;96398.91;5084785;28;20214;-73
2021/05/30 06:18:31;;;;;;;3.78;3.05;;;;;;;22.83;27.10;96406.69;5053037;28;20170;-73
2021/05/30 06:20:56;;;;;;;3.75;3.22;;;;;;;22.97;26.96;96409.34;5052658;28;20188;-73
2021/05/30 06:23:21;;;;;;;3.47;3.17;;;;;;;22.09;28.44;96401.47;5053805;28;20251;-73
2021/05/30 06:25:47;;;;;;;2.63;2.42;;;;;;;23.84;26.16;96414.31;5051539;28;20174;-73
2021/05/30 06:28:12;;;;;;;3.38;3.00;;;;;;;22.52;27.53;96414.38;5052754;28;20225;-73
2021/05/30 06:30:40;;;;;;;3.70;3.30;;;;;;;23.18;27.02;96417.09;5035772;28;20242;-73
2021/05/30 06:33:06;;;;;;;5.38;2.70;;;;;;;23.77;26.45;96412.75;5052469;28;20611;-73
2021/05/30 06:35:32;;;;;;;3.67;3.03;;;;;;;22.87;27.54;96413.22;5052886;28;20535;-73
2021/05/30 06:37:58;;;;;;;3.00;2.70;;;;;;;23.33;27.09;96417.69;5082130;28;20174;-73
2021/05/30 06:40:23;;;;;;;3.15;2.85;;;;;;;23.27;27.24;96415.88;5052360;28;20185;-72
2021/05/30 06:42:49;;;;;;;3.33;3.00;;;;;;;24.45;24.97;96407.75;5052413;28;20277;-74
2021/05/30 06:45:15;;;;;;;4.03;3.08;;;;;;;23.64;26.06;96408.28;5053278;28;20174;-75
2021/05/30 06:47:40;;;;;;;3.40;2.70;;;;;;;22.37;28.11;96413.75;5051855;28;20197;-75
2021/05/30 06:50:06;;;;;;;3.10;2.90;;;;;;;22.07;29.69;96406.13;5051975;28;20174;-74
2021/05/30 06:52:31;;;;;;;2.60;2.30;;;;;;;22.43;27.41;96411.09;5052912;28;20193;-74
2021/05/30 06:54:57;;;;;;;3.15;2.67;;;;;;;22.18;26.82;96412.69;5052153;28;20240;-74
2021/05/30 06:57:23;;;;;;;2.80;2.60;;;;;;;21.59;29.31;96410.59;5050940;28;20186;-73
2021/05/30 06:59:48;;;;;;;3.50;2.65;;;;;;;23.09;26.44;96416.50;5052108;28;20676;-73
2021/05/30 07:02:15;;;;;;;2.92;2.63;;;;;;;22.62;26.39;96412.19;5051762;28;20259;-74
2021/05/30 07:04:40;;;;;;;2.70;2.50;;;;;;;23.09;26.05;96420.97;5052063;28;20239;-73
2021/05/30 07:07:05;;;;;;;3.13;2.50;;;;;;;23.43;25.61;96418.09;5034379;28;20174;-74
2021/05/30 07:09:31;;;;;;;2.97;2.70;;;;;;;22.83;26.50;96417.28;5034501;28;20173;-73
2021/05/30 07:11:56;;;;;;;3.22;2.53;;;;;;;22.21;26.82;96425.50;5053006;28;20181;-72
2021/05/30 07:14:21;;;;;;;4.55;2.72;;;;;;;21.47;28.21;96418.25;5051837;28;20587;-73
2021/05/30 07:16:47;;;;;;;3.25;2.60;;;;;;;21.21;28.82;96426.78;5051943;28;20181;-74
2021/05/30 07:19:12;;;;;;;5.35;2.42;;;;;;;21.67;27.31;96415.72;5050682;28;20185;-74
2021/05/30 07:21:37;;;;;;;3.95;2.88;;;;;;;20.97;29.33;96424.56;5034401;28;20188;-74
2021/05/30 07:24:03;;;;;;;4.45;3.00;;;;;;;21.14;28.92;96416.16;5034733;28;20206;-74
2021/05/30 07:26:29;;;;;;;3.10;2.80;;;;;;;21.41;28.74;96413.72;5034790;28;20194;-75
2021/05/30 07:28:54;;;;;;;2.88;2.58;;;;;;;21.59;28.56;96408.75;5051530;28;20830;-74
2021/05/30 07:31:19;;;;;;;2.45;2.25;;;;;;;21.96;28.22;96417.25;5052452;28;20316;-74
2021/05/30 07:33:46;;;;;;;2.75;2.40;;;;;;;21.36;28.32;96416.13;5034771;28;20644;-74
2021/05/30 07:36:11;;;;;;;3.03;2.60;;;;;;;21.35;28.35;96419.78;5052509;28;20182;-73
2021/05/30 07:38:37;;;;;;;3.17;2.47;;;;;;;20.77;29.79;96411.22;5051648;28;20182;-75
2021/05/30 07:41:02;;;;;;;3.42;2.67;;;;;;;20.31;30.48;96412.34;5051311;28;20194;-74
2021/05/30 07:43:28;;;;;;;3.72;2.75;;;;;;;21.51;28.91;96424.75;5051266;28;20321;-74
2021/05/30 07:45:54;;;;;;;2.63;2.30;;;;;;;20.34;30.10;96416.44;5051035;28;20189;-74
2021/05/30 07:48:19;;;;;;;3.70;2.40;;;;;;;20.51;28.95;96419.69;5050790;28;20177;-74
2021/05/30 07:50:45;;;;;;;5.60;2.58;;;;;;;19.82;29.14;96416.66;5048863;28;20239;-75
2021/05/30 07:53:11;;;;;;;3.42;2.15;;;;;;;20.46;29.52;96420.25;5050920;28;20210;-74
2021/05/30 07:55:37;;;;;;;2.17;1.88;;;;;;;20.54;28.92;96420.13;5051058;28;20700;-74
2021/05/30 07:58:02;;;;;;;3.10;2.25;;;;;;;19.76;29.63;96429.56;5051032;28;20170;-74
2021/05/30 08:00:27;;;;;;;3.28;2.75;;;;;;;19.54;30.47;96425.19;5049843;28;20249;-74
2021/05/30 08:02:53;;;;;;;3.30;2.35;;;;;;;18.63;29.77;96423.53;5051866;28;20289;-74
2021/05/30 08:05:20;;;;;;;2.20;1.92;;;;;;;17.52;32.01;96431.69;5052340;28;20520;-74
2021/05/30 08:07:46;;;;;;;3.50;2.47;;;;;;;17.05;31.85;96424.56;5050993;28;20200;-74
2021/05/30 08:10:11;;;;;;;5.95;2.30;;;;;;;17.32;33.28;96420.75;5050950;28;20184;-74
2021/05/30 08:12:37;;;;;;;2.90;2.30;;;;;;;17.50;33.54;96425.78;5049149;28;20186;-74
2021/05/30 08:15:02;;;;;;;2.70;2.50;;;;;;;17.79;33.67;96423.41;5050899;28;20194;-76
2021/05/30 08:17:31;;;;;;;3.40;3.00;;;;;;;17.30;34.69;96422.69;5050762;28;20584;-78
2021/05/30 08:19:57;;;;;;;3.38;2.25;;;;;;;17.24;34.07;96424.22;5051433;28;20182;-77
2021/05/30 08:22:22;;;;;;;2.67;2.47;;;;;;;16.85;33.01;96429.31;5033111;28;20522;-78
2021/05/30 08:24:47;;;;;;;2.85;2.45;;;;;;;16.81;33.09;96424.59;5052806;28;20196;-78
2021/05/30 08:27:14;;;;;;;3.57;2.40;;;;;;;15.91;34.86;96427.06;5046762;28;20192;-78
2021/05/30 08:29:40;;;;;;;3.03;2.50;;;;;;;16.83;34.92;96430.47;5051064;28;20178;-78
2021/05/30 08:32:05;;;;;;;2.50;2.20;;;;;;;17.01;33.40;96433.75;5034379;28;20185;-76
2021/05/30 08:34:31;;;;;;;3.10;2.77;;;;;;;16.24;36.34;96432.38;5047313;28;20230;-77
2021/05/30 08:36:57;;;;;;;3.13;2.80;;;;;;;16.81;35.98;96435.09;5048129;28;20178;-77
2021/05/30 08:39:22;;;;;;;3.17;2.40;;;;;;;16.79;34.28;96424.75;5032548;28;20182;-77
2021/05/30 08:41:48;;;;;;;3.50;2.57;;;;;;;16.39;35.38;96433.38;5031573;28;20189;-77
2021/05/30 08:44:13;;;;;;;3.13;2.33;;;;;;;15.84;35.04;96426.88;5047112;28;20209;-75
2021/05/30 08:46:40;;;;;;;3.53;2.60;;;;;;;15.48;36.15;96426.22;5049572;28;20186;-76
2021/05/30 08:49:05;;;;;;;4.20;2.50;;;;;;;15.56;35.30;96425.44;5050152;28;20174;-76
2021/05/30 08:51:31;;;;;;;3.83;2.53;;;;;;;15.79;34.92;96430.94;5033434;28;20534;-78
2021/05/30 08:53:57;;;;;;;2.40;2.20;;;;;;;15.72;34.94;96422.06;5031859;28;20248;-76
2021/05/30 08:56:22;;;;;;;2.97;2.43;;;;;;;16.48;33.98;96421.94;5076159;28;20177;-76
2021/05/30 08:58:49;;;;;;;4.27;2.90;;;;;;;17.09;34.79;96427.69;5050173;28;20606;-76
2021/05/30 09:01:15;;;;;;;4.23;2.30;;;;;;;16.89;35.12;96428.03;5049748;28;20168;-77
2021/05/30 09:03:55;;;;;;;3.57;2.40;;;;;;;17.09;34.46;96436.38;5049903;28;20677;-76
2021/05/30 09:06:22;;;;;;;3.37;2.77;;;;;;;16.73;34.62;96433.28;5032304;28;20231;-76
2021/05/30 09:08:53;;;;;;;2.75;2.33;;;;;;;16.80;33.16;96436.06;5033361;28;20174;-75
2021/05/30 09:11:41;;;;;;;3.80;3.33;;;;;;;17.04;34.54;96436.03;5049440;28;20173;-74
2021/05/30 09:14:13;;;;;;;4.05;3.33;;;;;;;17.28;34.50;96437.81;5051129;28;20198;-75
2021/05/30 09:17:01;;;;;;;4.55;3.13;;;;;;;16.89;35.99;96442.94;5048924;28;20193;-74
2021/05/30 09:19:51;;;;;;;4.05;3.33;;;;;;;17.61;35.08;96430.66;5043418;28;20192;-75
2021/05/30 09:22:36;;;;;;;3.78;3.47;;;;;;;16.88;36.96;96425.56;5032024;28;20287;-74
2021/05/30 09:25:11;;;;;;;4.05;2.80;;;;;;;16.43;37.42;96421.56;5051167;28;20166;-74
2021/05/30 09:28:00;;;;;;;3.45;2.80;;;;;;;16.65;36.99;96420.13;5048691;28;20188;-75
2021/05/30 09:30:34;;;;;;;3.20;2.90;;;;;;;16.93;36.38;96418.00;5046303;28;20171;-75
2021/05/30 09:33:11;;;;;;;3.33;2.85;;;;;;;17.68;35.51;96421.13;5013874;28;20560;-75
2021/05/30 09:35:36;;;;;;;4.15;2.80;;;;;;;17.82;34.41;96425.66;5029912;28;20198;-75
2021/05/30 09:38:04;;;;;;;2.72;2.53;;;;;;;17.97;35.05;96420.53;5044591;28;20181;-74
2021/05/30 09:40:38;;;;;;;4.30;2.55;;;;;;;17.46;34.04;96422.66;5049367;28;20246;-75
2021/05/30 09:43:08;;;;;;;3.03;2.63;;;;;;;17.28;34.75;96432.56;5049570;28;20682;-73
2021/05/30 09:45:35;;;;;;;3.45;2.60;;;;;;;17.36;33.53;96415.97;5050563;28;20253;-75
2021/05/30 09:48:01;;;;;;;2.88;2.60;;;;;;;17.64;34.14;96422.44;5043039;28;20181;-74
2021/05/30 09:50:32;;;;;;;3.10;2.20;;;;;;;16.98;32.47;96431.47;5053114;28;20176;-74
2021/05/30 09:52:59;;;;;;;5.00;2.00;;;;;;;17.26;32.40;96418.78;5054610;28;20205;-74
2021/05/30 09:55:32;;;;;;;3.33;2.10;;;;;;;17.15;31.90;96427.84;5053369;28;20285;-74
2021/05/30 09:58:12;;;;;;;2.10;1.80;;;;;;;17.47;31.01;96418.22;5051422;28;20182;-73
2021/05/30 10:00:38;;;;;;;4.43;2.20;;;;;;;17.74;30.54;96438.84;5052958;28;20278;-74
2021/05/30 10:03:04;;;;;;;2.70;2.47;;;;;;;18.06;31.61;96421.28;5036320;28;20267;-74
2021/05/30 10:05:29;;;;;;;3.95;2.90;;;;;;;17.98;31.48;96423.97;5053285;28;20166;-74
2021/05/30 10:07:56;;;;;;;2.40;2.20;;;;;;;18.18;31.35;96429.59;5053105;28;20185;-74
2021/05/30 10:10:21;;;;;;;2.45;2.20;;;;;;;18.43;31.00;96432.91;5034602;28;20664;-73
2021/05/30 10:12:47;;;;;;;2.50;2.30;;;;;;;18.47;30.01;96429.75;5052732;28;20205;-75
2021/05/30 10:15:13;;;;;;;2.75;2.20;;;;;;;18.17;30.50;96420.06;5053111;28;20652;-76
2021/05/30 10:17:39;;;;;;;3.17;2.10;;;;;;;17.16;30.68;96426.84;5052938;28;20190;-76
2021/05/30 10:20:07;;;;;;;2.65;2.10;;;;;;;16.66;31.33;96435.69;5051548;28;20182;-75
2021/05/30 10:22:33;;;;;;;2.22;2.03;;;;;;;17.38;31.95;96432.38;5035821;28;20204;-74
2021/05/30 10:24:58;;;;;;;2.78;2.03;;;;;;;17.98;31.41;96422.16;5035933;28;20709;-73
2021/05/30 10:27:26;;;;;;;2.80;2.50;;;;;;;18.01;29.91;96420.97;5036063;28;20283;-74
2021/05/30 10:30:13;;;;;;;4.00;2.15;;;;;;;17.70;31.29;96416.53;5050388;28;20210;-74
2021/05/30 10:33:12;;;;;;;2.50;2.30;;;;;;;17.45;32.31;96425.47;5048747;28;20684;-74
2021/05/30 10:35:38;;;;;;;3.40;2.20;;;;;;;17.91;31.91;96426.44;5052482;28;20237;-74
2021/05/30 10:38:03;;;;;;;3.90;2.35;;;;;;;18.40;29.94;96427.00;5033612;28;20268;-74
2021/05/30 10:40:40;;;;;;;3.00;2.30;;;;;;;18.51;29.88;96415.25;5051213;28;20339;-74
2021/05/30 10:43:09;;;;;;;2.40;2.20;;;;;;;18.27;32.95;96412.78;5050039;28;20198;-74
2021/05/30 10:45:44;;;;;;;3.35;2.28;;;;;;;17.98;31.49;96409.00;5053498;28;20162;-73
2021/05/30 10:48:13;;;;;;;3.80;2.65;;;;;;;17.37;30.93;96410.53;5053579;28;20707;-75
2021/05/30 10:53:45;;;;;;;5.72;2.60;;;;;;;17.38;32.67;96414.00;5051216;28;20737;-73
2021/05/30 10:56:24;;;;;;;3.38;2.70;;;;;;;17.62;31.74;96408.66;5052326;28;20276;-73
2021/05/30 10:59:05;;;;;;;3.20;2.60;;;;;;;16.89;33.02;96406.22;5053258;28;20169;-72
2021/05/30 11:01:33;;;;;;;3.05;2.38;;;;;;;16.58;34.59;96411.28;5051843;28;20596;-73
2021/05/30 11:04:33;;;;;;;4.63;2.60;;;;;;;16.69;32.08;96395.22;5050851;28;20202;-73
2021/05/30 11:07:04;;;;;;;3.13;2.47;;;;;;;16.64;32.73;96400.13;5053185;28;20676;-72
2021/05/30 11:09:48;;;;;;;4.30;2.45;;;;;;;16.69;32.81;96396.06;5052025;28;20731;-73
2021/05/30 11:12:47;;;;;;;2.92;2.63;;;;;;;16.82;33.66;96403.44;5051931;28;20174;-73
2021/05/30 11:15:14;;;;;;;3.88;3.10;;;;;;;16.44;34.39;96397.03;5051631;28;20339;-74
2021/05/30 11:17:50;;;;;;;3.00;2.70;;;;;;;16.93;35.00;96392.59;5051583;28;20205;-75
2021/05/30 11:20:18;;;;;;;3.45;2.67;;;;;;;17.49;33.90;96397.84;5052721;28;20165;-74
2021/05/30 11:22:46;;;;;;;3.53;2.70;;;;;;;17.29;33.15;96407.94;5034941;28;20656;-74
2021/05/30 11:25:12;;;;;;;3.22;2.65;;;;;;;17.70;33.30;96395.53;5052121;28;20178;-74
2021/05/30 11:27:51;;;;;;;4.05;2.65;;;;;;;16.80;33.47;96401.97;5051583;28;20604;-74
2021/05/30 11:30:35;;;;;;;4.38;2.47;;;;;;;16.12;32.94;96396.00;5052302;28;20173;-72
2021/05/30 11:33:01;;;;;;;4.35;2.30;;;;;;;17.11;33.12;96402.06;5052671;28;20193;-73
2021/05/30 11:35:29;;;;;;;3.03;2.72;;;;;;;16.96;32.79;96386.19;5049541;28;20688;-74
2021/05/30 11:37:55;;;;;;;5.40;2.65;;;;;;;16.83;32.39;96393.75;5052583;28;20235;-74
2021/05/30 11:40:22;;;;;;;5.20;2.60;;;;;;;16.30;32.72;96384.56;5051199;28;20564;-74
2021/05/30 11:42:51;;;;;;;2.72;2.50;;;;;;;16.86;32.65;96385.56;5052442;28;20193;-74